• Join FlightAware (Why Join?)
  • Login
  • US Flag 
07:41PM EDT


 

Airport Tracker/Info


-or-


 

Live Flight TrackerFlight Track Log ✈ QLK378D ✈ 26-Oct-2013 ✈ YBBN / BNE - YHBA / HVB

Flight Track Log - Related Links

Times and Time Zones

All times are in EDT time to prevent confusion due to time zone crossing. See the QLK378D flight status page for this flight to view local times or setup timezone preferences in your user account.

Time Position Orientation Groundspeed Altitude Reporting Facility
EDT Latitude Longitude Course Direction KTS MPH feet Rate Location/Type
01:30AM -27.3561 153.1422 357° North 155 178 1,800  Level Aus ATC (RADAR)
01:30AM -27.3431 153.1413 357° North 171 197 2,300 2,400 Climbing Aus ATC (RADAR)
01:31AM -27.3021 153.1432 North 197 227 4,200 2,100 Climbing Aus ATC (RADAR)
01:31AM -27.2817 153.1440 North 213 245 4,600 2,160 Climbing Aus ATC (RADAR)
01:32AM -27.2442 153.1408 356° North 227 261 6,200 2,520 Climbing Aus ATC (RADAR)
01:33AM -27.1956 153.1358 355° North 232 267 8,000 2,400 Climbing Aus ATC (RADAR)
01:33AM -27.1559 153.1328 356° North 242 278 9,400 2,220 Climbing Aus ATC (RADAR)
01:34AM -27.1202 153.1298 356° North 254 292 10,400 2,160 Climbing Aus ATC (RADAR)
01:34AM -27.0775 153.1264 356° North 261 300 11,800 2,160 Climbing Aus ATC (RADAR)
01:35AM -27.0221 153.1218 356° North 267 307 13,300 1,500 Climbing Aus ATC (RADAR)
01:36AM -26.9636 153.1172 356° North 283 326 14,100 660 Climbing Aus ATC (RADAR)
01:36AM -26.9266 153.1155 358° North 310 357 14,100  Level Aus ATC (RADAR)
01:37AM -26.8717 153.1108 356° North 337 388 14,100  Level Aus ATC (RADAR)
01:37AM -26.8065 153.1063 356° North 351 404 14,100  Level Aus ATC (RADAR)
01:38AM -26.7503 153.1022 356° North 347 399 14,100  Level Aus ATC (RADAR)
01:39AM -26.6953 153.0981 356° North 339 390 14,100  Level Aus ATC (RADAR)
01:39AM -26.6405 153.0946 357° North 336 387 14,100  Level Aus ATC (RADAR)
01:40AM -26.5557 153.0845 354° North 335 386 14,100  Level Aus ATC (RADAR)
01:40AM -26.5405 153.0815 350° North 334 384 14,100  Level Aus ATC (RADAR)
01:41AM -26.4869 153.0724 351° North 332 382 14,100  Level Aus ATC (RADAR)
01:41AM -26.4335 153.0633 351° North 331 381 14,100  Level Aus ATC (RADAR)
01:42AM -26.3805 153.0546 352° North 330 380 14,100  Level Aus ATC (RADAR)
01:42AM -26.3347 153.0467 351° North 333 383 14,100  Level Aus ATC (RADAR)
01:43AM -26.2811 153.0373 351° North 334 384 14,100  Level Aus ATC (RADAR)
01:44AM -26.2275 153.0290 352° North 333 383 14,100  Level Aus ATC (RADAR)
01:44AM -26.1739 153.0206 352° North 333 383 14,100  Level Aus ATC (RADAR)
01:45AM -26.1050 153.0089 351° North 334 384 14,100  Level Aus ATC (RADAR)
01:46AM -26.0436 152.9972 350° North 334 384 14,100  Level Aus ATC (RADAR)
01:46AM -26.0129 152.9932 353° North 332 382 14,100 -600 Level Aus ATC (RADAR)
01:46AM -25.9595 152.9844 352° North 332 382 13,600 -1,320 Descending Aus ATC (RADAR)
01:47AM -25.8910 152.9756 353° North 327 376 12,400 -1,680 Descending Aus ATC (RADAR)
01:48AM -25.8403 152.9663 351° North 318 366 11,400 -1,680 Descending Aus ATC (RADAR)
01:48AM -25.7916 152.9600 353° North 304 350 10,500 -1,620 Descending Aus ATC (RADAR)
01:49AM -25.7519 152.9545 353° North 291 335 9,700 -1,500 Descending Aus ATC (RADAR)
01:49AM -25.7078 152.9460 350° North 278 320 8,900 -1,380 Descending Aus ATC (RADAR)
01:50AM -25.6519 152.9360 351° North 273 314 7,900 -1,380 Descending Aus ATC (RADAR)
01:51AM -25.6208 152.9325 354° North 270 311 7,300 -1,440 Descending Aus ATC (RADAR)
01:51AM -25.5787 152.9242 350° North 265 305 6,500 -1,380 Descending Aus ATC (RADAR)
01:52AM -25.5312 152.9163 351° North 260 299 5,600 -1,320 Descending Aus ATC (RADAR)
01:52AM -25.4909 152.9095 351° North 252 290 4,900 -1,320 Descending Aus ATC (RADAR)
01:53AM -25.4518 152.9031 351° North 245 282 4,100 -1,200 Descending Aus ATC (RADAR)
01:54AM -25.4135 152.8996 355° North 237 273 3,500 -1,200 Descending Aus ATC (RADAR)
01:54AM -25.3750 152.9018 North 235 270 2,700 -1,380 Descending Aus ATC (RADAR)
01:55AM -25.3279 152.9053 North 225 259 1,700 -840 Descending Aus ATC (RADAR)
01:56AM -25.2959 152.9125 11° North 202 232 1,600 -120 Descending Aus ATC (RADAR)
01:56AM -25.2747 152.8958 324° Northwest 148 170 1,600  Level Aus ATC (RADAR)
01:57AM -25.2631 152.8604 290° West 177 204 1,600 -300 Level Aus ATC (RADAR)
01:57AM -25.2694 152.8387 252° West 159 183 1,300 -660 Descending Aus ATC (RADAR)
01:58AM -25.2931 152.8238 210° Southwest 174 200 900 -600 Descending Aus ATC (RADAR)
01:58AM -25.3087 152.8254 175° South 155 178 700 -480 Descending Aus ATC (RADAR)